Flight Track Log - Related Links

Times and Time Zones

All times are in EDT time to prevent confusion due to time zone crossing. See the ELJ309 flight status page for this flight to view local times or setup timezone preferences in your user account.

Time Position Orientation Groundspeed Altitude Reporting Facility
EDT Latitude Longitude Course Direction KTS MPH feet Rate Location/Type
Mon 09:12:23 AM 40.7667 -73.4333 270° West 171 197 2,200  Level New York TRACON
Mon 09:13:23 AM 40.7667 -73.4833 270° West 248 285 3,000 734 Climbing New York TRACON
Mon 09:15:31 AM 40.6453 -73.4733 176° South 225 259 4,500 1,333 Climbing New York Center
Mon 09:16:32 AM 40.5686 -73.4594 172° South 263 303 7,200 2,773 Climbing New York Center
Mon 09:17:30 AM 40.4772 -73.4450 173° South 303 349 10,000 2,695 Climbing New York Center
Mon 09:18:30 AM 40.3944 -73.4281 171° South 309 356 12,500 2,218 Climbing New York Center
Mon 09:20:15 AM 40.2497 -73.4008 172° South 302 348 16,100 1,927 Climbing Washington Center
Mon 09:21:15 AM 40.1692 -73.3356 148° Southeast 319 367 17,800 1,587 Climbing Washington Center
Mon 09:22:16 AM 40.0786 -73.2842 157° South 344 396 19,300 1,623 Climbing Washington Center
Mon 09:23:17 AM 39.9919 -73.3222 199° South 328 377 21,100 1,736 Climbing Washington Center
Mon 09:24:17 AM 39.9250 -73.4217 229° Southwest 331 381 22,800 1,475 Climbing Washington Center
Mon 09:25:15 AM 39.8619 -73.5075 226° Southwest 342 394 24,000 1,271 Climbing Washington Center
Mon 09:26:15 AM 39.7925 -73.5931 223° Southwest 342 394 25,300 1,339 Climbing Washington Center
Mon 09:27:16 AM 39.7189 -73.6736 220° Southwest 347 399 26,700 1,240 Climbing Washington Center
Mon 09:28:16 AM 39.6472 -73.7589 223° Southwest 352 405 27,800 1,091 Climbing Washington Center
Mon 09:29:17 AM 39.5694 -73.8417 219° Southwest 359 413 28,900 1,160 Climbing Washington Center
Mon 09:30:15 AM 39.4914 -73.9297 221° Southwest 364 419 30,100 1,210 Climbing Washington Center
Mon 09:31:16 AM 39.4175 -74.0119 221° Southwest 364 419 31,300 1,131 Climbing Washington Center
Mon 09:32:17 AM 39.3394 -74.0969 220° Southwest 364 419 32,400 1,041 Climbing Washington Center
Mon 09:33:17 AM 39.2653 -74.1761 220° Southwest 364 419 33,400 923 Climbing Washington Center
Mon 09:34:14 AM 39.1914 -74.2581 221° Southwest 364 419 34,200 712 Climbing Washington Center
Mon 09:35:15 AM 39.1111 -74.3450 220° Southwest 364 419 34,800 590 Climbing Washington Center
Mon 09:36:16 AM 39.0328 -74.4319 221° Southwest 370 426 35,400 650 Climbing Washington Center
Mon 09:37:15 AM 38.9522 -74.5158 219° Southwest 375 432 36,100 706 Climbing Washington Center
Mon 09:38:15 AM 38.8694 -74.6050 220° Southwest 380 437 36,800 694 Climbing Washington Center
Mon 09:39:16 AM 38.7889 -74.6942 221° Southwest 380 437 37,500 639 Climbing Washington Center
Mon 09:40:17 AM 38.7083 -74.7775 219° Southwest 380 437 38,100 645 Climbing Washington Center
Mon 09:41:17 AM 38.6294 -74.8556 218° Southwest 373 429 38,800 559 Climbing Washington Center
Mon 09:42:15 AM 38.5528 -74.9439 222° Southwest 373 429 39,200 305 Climbing Washington Center
Mon 09:43:15 AM 38.4906 -75.0081 219° Southwest 373 429 39,400 149 Climbing Washington Center
Mon 09:44:16 AM 38.4036 -75.1017 220° Southwest 373 429 39,500 149 Climbing Washington Center
Mon 09:45:16 AM 38.3183 -75.1761 214° Southwest 373 429 39,700 250 Climbing Washington Center
Mon 09:46:16 AM 38.2103 -75.2536 209° Southwest 390 449 40,000 149 Climbing Washington Center
Mon 09:47:17 AM 38.1081 -75.3147 205° Southwest 398 458 40,000  Level Washington Center
Mon 09:48:17 AM 38.0081 -75.3861 209° Southwest 410 472 40,000  Level Washington Center
Mon 09:49:15 AM 37.9019 -75.4469 204° Southwest 416 479 40,000  Level Washington Center
Mon 09:50:15 AM 37.7978 -75.5156 207° Southwest 416 479 40,000  Level Washington Center
Mon 09:51:17 AM 37.6933 -75.5786 206° Southwest 421 484 40,000  Level Washington Center
Mon 09:52:17 AM 37.5869 -75.6469 207° Southwest 426 490 40,000  Level Washington Center
Mon 09:53:17 AM 37.4828 -75.7122 206° Southwest 426 490 40,000  Level Washington Center
Mon 09:54:15 AM 37.3783 -75.7747 205° Southwest 426 490 40,000  Level Washington Center
Mon 09:55:15 AM 37.2739 -75.8397 206° Southwest 426 490 40,000  Level Washington Center
Mon 09:56:15 AM 37.1694 -75.9047 206° Southwest 426 490 40,000  Level Washington Center
Mon 09:57:17 AM 37.0650 -75.9692 206° Southwest 426 490 40,000  Level Washington Center
Mon 09:58:17 AM 36.9542 -76.0311 204° Southwest 439 505 40,000  Level Washington Center
Mon 09:59:15 AM 36.8456 -76.0981 206° Southwest 446 513 40,000  Level Washington Center
Mon 10:00:16 AM 36.7389 -76.1647 207° Southwest 435 501 40,000  Level Washington Center
Mon 10:01:14 AM 36.6425 -76.2261 207° Southwest 435 501 40,000  Level Washington Center
Mon 10:02:15 AM 36.5336 -76.2925 206° Southwest 430 495 40,000  Level Washington Center
Mon 10:03:15 AM 36.4269 -76.3586 207° Southwest 430 495 40,000  Level Washington Center
Mon 10:04:16 AM 36.3158 -76.4219 205° Southwest 430 495 40,000  Level Washington Center
Mon 10:05:17 AM 36.2069 -76.4878 206° Southwest 430 495 40,000  Level Washington Center
Mon 10:06:15 AM 36.0981 -76.5533 206° Southwest 430 495 40,000  Level Washington Center
Mon 10:07:16 AM 35.9867 -76.6214 206° Southwest 435 501 40,000  Level Washington Center
Mon 10:08:17 AM 35.8778 -76.6867 206° Southwest 441 507 40,000  Level Washington Center
Mon 10:09:17 AM 35.7644 -76.7517 205° Southwest 447 514 40,000  Level Washington Center
Mon 10:10:16 AM 35.6511 -76.8189 206° Southwest 447 514 40,000  Level Washington Center
Mon 10:11:16 AM 35.5461 -76.8864 208° Southwest 441 507 40,000  Level Washington Center
Mon 10:12:17 AM 35.4306 -76.9508 204° Southwest 446 513 40,000  Level Washington Center
Mon 10:13:14 AM 35.3172 -77.0150 205° Southwest 446 513 40,000  Level Washington Center
Mon 10:14:15 AM 35.2100 -77.0817 207° Southwest 446 513 40,000  Level Washington Center
Mon 10:15:15 AM 35.0944 -77.1481 205° Southwest 446 513 40,000  Level Washington Center
Mon 10:16:16 AM 34.9808 -77.2119 205° Southwest 446 513 40,000  Level Washington Center
Mon 10:17:14 AM 34.8694 -77.2781 206° Southwest 446 513 40,000  Level Washington Center
Mon 10:18:15 AM 34.7494 -77.3514 207° Southwest 446 513 40,000  Level Washington Center
Mon 10:19:16 AM 34.6336 -77.4169 205° Southwest 446 513 40,000  Level Washington Center
Mon 10:20:17 AM 34.5158 -77.4725 201° Southwest 446 513 40,000  Level Washington Center
Mon 10:24:00 AM 34.3759 -77.5088 192° South  Level FlightAware Approximate
Mon 10:24:41 AM 33.9611 -77.6472 192° South 481 554 40,000  Level Jacksonville Center
Mon 10:25:41 AM 33.8375 -77.6872 195° South 469 540 40,000  Level Jacksonville Center
Mon 10:26:41 AM 33.7119 -77.7272 195° South 470 541 40,000  Level Jacksonville Center
Mon 10:27:41 AM 33.5717 -77.7703 194° South 470 541 40,000  Level Jacksonville Center
Mon 10:28:41 AM 33.4481 -77.8097 195° South 471 542 40,000  Level Jacksonville Center
Mon 10:29:41 AM 33.3244 -77.8492 195° South 472 543 40,000  Level Jacksonville Center
Mon 10:30:41 AM 33.1989 -77.8886 195° South 480 552 40,000  Level Jacksonville Center
Mon 10:31:41 AM 33.0731 -77.9278 195° South 474 545 40,000  Level Jacksonville Center
Mon 10:32:41 AM 32.9494 -77.9692 196° South 473 544 40,000  Level Jacksonville Center
Mon 10:33:41 AM 32.8236 -78.0033 193° South 471 542 40,000  Level Jacksonville Center
Mon 10:34:41 AM 32.7000 -78.0444 196° South 466 536 40,000  Level Jacksonville Center
Mon 10:35:41 AM 32.5739 -78.0808 194° South 474 545 40,000  Level Jacksonville Center
Mon 10:36:41 AM 32.4483 -78.1219 195° South 471 542 40,000  Level Jacksonville Center
Mon 10:37:41 AM 32.3244 -78.1578 194° South 481 554 40,000  Level Jacksonville Center
Mon 10:38:41 AM 32.1983 -78.1964 195° South 466 536 40,000  Level Jacksonville Center
Mon 10:39:41 AM 32.0725 -78.2347 194° South 476 548 40,000  Level Jacksonville Center
Mon 10:40:41 AM 31.9469 -78.2825 198° South 476 548 40,000  Level Jacksonville Center
Mon 10:41:41 AM 31.8231 -78.3231 196° South 476 548 40,000  Level Jacksonville Center
Mon 10:42:41 AM 31.6972 -78.3608 194° South 476 548 40,000  Level Jacksonville Center
Mon 10:43:41 AM 31.5694 -78.4061 197° South 476 548 40,000  Level Jacksonville Center
Mon 10:44:41 AM 31.4475 -78.4414 194° South 469 540 40,000  Level Jacksonville Center
Mon 10:45:41 AM 31.3217 -78.4839 196° South 469 540 40,000  Level Jacksonville Center
Mon 10:46:41 AM 31.1956 -78.5214 194° South 483 556 40,000  Level Jacksonville Center
Mon 10:47:41 AM 31.0717 -78.5586 194° South 475 547 40,000  Level Jacksonville Center
Mon 10:48:41 AM 30.9436 -78.5983 195° South 469 540 40,000  Level Jacksonville Center
Mon 10:49:41 AM 30.8217 -78.6400 196° South 474 545 40,000  Level Jacksonville Center
Mon 10:51:38 AM 30.5872 -78.7128 195° South 478 550 40,000  Level Miami Center
Mon 10:52:38 AM 30.4678 -78.7564 197° South 472 543 40,000  Level Miami Center
Mon 10:53:38 AM 30.3400 -78.8000 196° South 473 544 40,000  Level Miami Center
Mon 10:54:38 AM 30.2122 -78.8456 197° South 478 550 40,000  Level Miami Center
Mon 10:55:38 AM 30.0847 -78.8864 195° South 478 550 40,000  Level Miami Center
Mon 10:56:38 AM 29.9525 -78.9389 199° South 473 544 40,000  Level Miami Center
Mon 10:57:38 AM 29.8267 -78.9794 196° South 473 544 40,000  Level Miami Center
Mon 10:58:38 AM 29.6989 -79.0225 196° South 473 544 40,000 -50 Level Miami Center
Mon 10:59:38 AM 29.5772 -79.0703 199° South 473 544 39,900 -50 Descending Miami Center
Mon 11:00:38 AM 29.4514 -79.1106 196° South 473 544 39,900 50 Level Miami Center
Mon 11:01:38 AM 29.3278 -79.1531 197° South 473 544 40,000  Climbing Miami Center
Mon 11:02:38 AM 29.1956 -79.1908 194° South 465 535 39,900 -50 Descending Miami Center
Mon 11:03:38 AM 29.0739 -79.2381 199° South 470 541 39,900  Level Miami Center
Mon 11:04:38 AM 28.9500 -79.2806 197° South 470 541 39,900 50 Level Miami Center
Mon 11:05:38 AM 28.8222 -79.3203 195° South 470 541 40,000 -400 Climbing Miami Center
Mon 11:06:38 AM 28.6983 -79.3625 197° South 470 541 39,100 -1,750 Descending Miami Center
Mon 11:07:38 AM 28.5722 -79.4047 196° South 475 547 36,500 -2,500 Descending Miami Center
Mon 11:08:38 AM 28.4483 -79.4467 197° South 475 547 34,100 -2,600 Descending Miami Center
Mon 11:09:38 AM 28.3267 -79.4864 196° South 469 540 31,300 -2,550 Descending Miami Center
Mon 11:10:38 AM 28.2092 -79.5236 196° South 454 522 29,000 -2,300 Descending Miami Center
Mon 11:11:38 AM 28.0936 -79.5633 197° South 449 517 26,700 -2,300 Descending Miami Center
Mon 11:12:38 AM 27.9758 -79.6028 196° South 444 511 24,400 -2,300 Descending Miami Center
Mon 11:13:38 AM 27.8644 -79.6400 196° South 439 505 22,100 -2,200 Descending Miami Center
Mon 11:14:38 AM 27.7531 -79.6772 196° South 428 493 20,000 -2,100 Descending Miami Center
Mon 11:15:38 AM 27.6481 -79.7122 196° South 414 476 17,900 -2,050 Descending Miami Center
Mon 11:16:38 AM 27.5494 -79.7425 195° South 402 463 15,900 -2,000 Descending Miami Center
Mon 11:17:38 AM 27.4464 -79.7775 197° South 396 456 13,900 -2,050 Descending Miami Center
Mon 11:18:38 AM 27.3414 -79.8122 196° South 385 443 11,800 -1,850 Descending Miami Center
Mon 11:19:38 AM 27.2572 -79.8381 195° South 336 387 10,200 -1,600 Descending Miami Center
Mon 11:20:38 AM 27.1753 -79.8664 197° South 320 368 8,600 -1,100 Descending Miami Center
Mon 11:21:38 AM 27.1097 -79.8972 203° Southwest 300 345 8,000 -1,150 Descending Miami Center
Mon 11:22:38 AM 27.0400 -79.9350 206° Southwest 285 328 6,300 -1,500 Descending Miami Center
Mon 11:23:38 AM 26.9564 -79.9422 184° South 269 310 5,000 -650 Descending Miami Center
Mon 11:24:38 AM 26.8769 -79.9472 183° South 274 315 5,000  Level Miami Center
Mon 11:25:38 AM 26.8017 -79.9497 182° South 279 321 5,000  Level Miami Center
Mon 11:26:38 AM 26.7328 -79.9525 182° South 270 311 5,000  Level Miami Center
Mon 11:28:00 AM 26.5916 -80.0145 180° South  Level Estimated
Mon 11:35:00 AM 26.3785 -80.1077 180° South  Level Estimated
Mon 11:36:00 AM 26.3785 -80.1077 180° South  Level Estimated
Mon 11:37:00 AM 26.3785 -80.1077 180° South  Level Estimated
Mon 11:38:00 AM 26.3785 -80.1077 180° South  Level Estimated
Mon 11:39:00 AM 26.3785 -80.1077 180° South  Level Estimated
Mon 11:40:00 AM 26.3785 -80.1077 180° South  Level Estimated
Mon 11:41:00 AM 26.3785 -80.1077 180° South  Level Estimated
Mon 11:42:00 AM 26.3785 -80.1077 180° South  Level Estimated

Login

Don't have an account? Register now (free) for customized features, flight alerts, and more!